Harrisonville, Pennsylvania
Current Conditions -  °F | °C
As of 2:53 PM on Friday 31 Oct 2014 (Local Time) from KAOO Reporting Station
Overcast Overcast  
Wind Chill: 44°   Ceiling: 5000
Heat Index: 47°   Visibility: 9mi
Dew Point: 36°   Wind: 6mph
Humidity: 66%   Direction: 110°ESE
Pressure: 29.87"   Gusts: NA
Location:  39.99°N, 78.06°W
Report Text: KAOO 311853Z AUTO 11005KT 9SM SCT031 OVC050 08/02 A2987 RMK AO2 SLP120 T00830022 $
Loading
Personal Weather Stations






























Interactive Weather Map
Tropical Storm Tracking
New forecast layout! Learn more

10-Day Weather Forecast

Advertisements
Track Severe Weather on mobile